createdAt,value
2023-02-08T00:05:00.730Z,-10.32
2023-02-08T00:10:07.500Z,-10.33
2023-02-08T00:15:12.995Z,-10.27
2023-02-08T00:20:19.051Z,-10.32
2023-02-08T00:25:24.650Z,-10.37
2023-02-08T00:30:30.161Z,-10.33
2023-02-08T00:35:35.912Z,-10.39
2023-02-08T00:40:41.990Z,-10.39
2023-02-08T00:45:48.023Z,-10.37
2023-02-08T00:51:25.221Z,-10.18
2023-02-08T00:56:30.787Z,-10.09
2023-02-08T01:01:38.845Z,-10.14
2023-02-08T01:06:44.551Z,-10.07
2023-02-08T01:11:50.366Z,-10.25
2023-02-08T01:16:55.996Z,-10.04
2023-02-08T01:22:02.012Z,-10.09
2023-02-08T01:27:07.346Z,-10.14
2023-02-08T01:32:12.762Z,-10.16
2023-02-08T01:37:18.135Z,-10.40
2023-02-08T01:42:25.703Z,-10.09
2023-02-08T01:47:31.310Z,-10.05
2023-02-08T01:52:37.733Z,-9.95
2023-02-08T01:57:44.626Z,-9.93
2023-02-08T02:03:20.075Z,-9.82
2023-02-08T02:08:26.379Z,-9.78
2023-02-08T02:13:33.121Z,-9.81
2023-02-08T02:18:38.795Z,-9.98
2023-02-08T02:23:50.824Z,-10.02
2023-02-08T02:29:26.892Z,-9.98
2023-02-08T02:34:35.848Z,-10.01
2023-02-08T02:39:59.087Z,-9.95
2023-02-08T02:45:54.209Z,-10.10
2023-02-08T02:51:13.853Z,-9.98
2023-02-08T02:56:27.173Z,-10.02
2023-02-08T03:01:32.885Z,-9.89
2023-02-08T03:06:59.552Z,-9.89
2023-02-08T03:12:26.978Z,-10.07
2023-02-08T03:18:07.209Z,-9.92
2023-02-08T03:23:42.000Z,-9.81
2023-02-08T03:29:29.728Z,-9.71
2023-02-08T03:35:00.268Z,-9.87
2023-02-08T03:40:25.202Z,-9.86
2023-02-08T03:45:35.793Z,-9.85
2023-02-08T03:50:44.719Z,-9.87
2023-02-08T03:56:00.295Z,-9.66
2023-02-08T04:01:16.323Z,-9.53
2023-02-08T04:06:22.555Z,-9.31
2023-02-08T04:11:28.009Z,-9.50
2023-02-08T04:16:32.452Z,-9.36
2023-02-08T04:21:38.068Z,-9.66
2023-02-08T04:26:43.282Z,-9.42
2023-02-08T04:31:56.301Z,-9.34
2023-02-08T04:37:02.541Z,-9.37
2023-02-08T04:42:09.005Z,-9.18
2023-02-08T04:47:20.547Z,-8.99
2023-02-08T04:52:32.070Z,-8.64
2023-02-08T04:57:36.491Z,-8.52
2023-02-08T05:02:41.088Z,-8.18
2023-02-08T05:07:52.574Z,-7.94
2023-02-08T05:12:56.764Z,-7.88
2023-02-08T05:18:02.828Z,-7.32
2023-02-08T05:23:07.759Z,-7.23
2023-02-08T05:28:17.990Z,-7.09
2023-02-08T05:33:25.080Z,-7.04
2023-02-08T05:38:29.116Z,-7.00
2023-02-08T05:43:34.800Z,-7.15
2023-02-08T05:48:39.730Z,-6.90
2023-02-08T05:53:46.414Z,-6.78
2023-02-08T05:58:52.351Z,-7.24
2023-02-08T06:04:00.675Z,-7.65
2023-02-08T06:09:05.445Z,-7.57
2023-02-08T06:14:09.695Z,-7.71
2023-02-08T06:19:16.725Z,-8.08
2023-02-08T06:24:20.976Z,-8.04
2023-02-08T06:29:24.978Z,-8.04
2023-02-08T06:34:29.324Z,-8.01
2023-02-08T06:39:34.312Z,-7.74
2023-02-08T06:44:41.895Z,-7.43
2023-02-08T06:49:51.196Z,-7.76
2023-02-08T06:54:57.658Z,-7.50
2023-02-08T07:00:01.635Z,-7.55
2023-02-08T07:05:08.232Z,-7.09
2023-02-08T07:10:12.275Z,-6.75
2023-02-08T07:15:16.451Z,-6.54
2023-02-08T07:20:20.647Z,-6.35
2023-02-08T07:25:24.874Z,-6.44
2023-02-08T07:30:29.205Z,-6.21
2023-02-08T07:35:33.492Z,-5.95
2023-02-08T07:40:37.546Z,-5.75
2023-02-08T07:45:42.641Z,-5.73
2023-02-08T07:50:46.676Z,-5.74
2023-02-08T07:55:50.743Z,-5.56
2023-02-08T08:00:57.348Z,-5.83
2023-02-08T08:06:01.453Z,-5.90
2023-02-08T08:11:05.786Z,-5.80
2023-02-08T08:16:10.287Z,-5.77
2023-02-08T08:21:15.585Z,-5.77
2023-02-08T08:26:22.452Z,-5.72
2023-02-08T08:31:26.714Z,-5.76
2023-02-08T08:36:31.285Z,-5.40
2023-02-08T08:41:36.672Z,-5.25
2023-02-08T08:46:40.954Z,-5.56
2023-02-08T08:51:44.995Z,-5.15
2023-02-08T08:56:49.580Z,-5.22
2023-02-08T09:01:54.385Z,-5.10
2023-02-08T09:06:58.434Z,-5.11
2023-02-08T09:12:03.579Z,-4.94
2023-02-08T09:17:07.712Z,-4.69
2023-02-08T09:22:13.752Z,-4.82
2023-02-08T09:27:22.454Z,-4.76
2023-02-08T09:32:26.886Z,-4.77
2023-02-08T09:37:31.826Z,-4.75
2023-02-08T09:42:45.317Z,-4.70
2023-02-08T09:47:56.069Z,-4.67
2023-02-08T09:53:40.394Z,-4.77
2023-02-08T09:58:53.101Z,-4.48
2023-02-08T10:04:23.048Z,-4.32
2023-02-08T10:09:28.462Z,-4.20
2023-02-08T10:14:39.131Z,-4.19
2023-02-08T10:19:52.339Z,-4.32
2023-02-08T10:25:16.874Z,-4.02
2023-02-08T10:30:39.241Z,-3.96
2023-02-08T10:35:48.258Z,-3.95
2023-02-08T10:41:01.521Z,-3.93
2023-02-08T10:46:28.326Z,-3.83
2023-02-08T10:51:35.766Z,-3.99
2023-02-08T10:57:01.373Z,-4.01
2023-02-08T11:02:24.849Z,-4.01
2023-02-08T11:07:43.594Z,-3.96
2023-02-08T11:13:16.425Z,-3.81
2023-02-08T11:18:23.207Z,-3.59
2023-02-08T11:23:29.137Z,-3.54
2023-02-08T11:28:33.162Z,-3.51
2023-02-08T11:33:37.476Z,-3.91
2023-02-08T11:38:43.777Z,-3.85
2023-02-08T11:44:29.562Z,-3.73
2023-02-08T11:49:45.318Z,-3.65
2023-02-08T11:54:49.797Z,-3.62
2023-02-08T12:00:17.464Z,-3.69
2023-02-08T12:05:43.809Z,-3.96
2023-02-08T12:10:58.888Z,-3.89
2023-02-08T12:16:11.494Z,-3.88
2023-02-08T12:21:22.276Z,-3.90
2023-02-08T12:26:44.686Z,-4.00
2023-02-08T12:32:20.728Z,-4.01
2023-02-08T12:38:05.569Z,-3.97
2023-02-08T12:43:30.596Z,-3.95
2023-02-08T12:49:04.701Z,-4.13
2023-02-08T12:54:15.059Z,-4.15
2023-02-08T12:59:34.775Z,-4.16
2023-02-08T13:04:46.908Z,-4.01
2023-02-08T13:10:19.097Z,-3.93
2023-02-08T13:15:33.605Z,-4.17
2023-02-08T13:20:52.165Z,-4.22
2023-02-08T13:26:09.508Z,-4.19
2023-02-08T13:31:23.122Z,-4.26
2023-02-08T13:36:31.947Z,-4.30
2023-02-08T13:41:38.165Z,-4.31
2023-02-08T13:46:51.417Z,-4.34
2023-02-08T13:51:57.045Z,-4.41
2023-02-08T13:57:03.019Z,-4.45
2023-02-08T14:02:23.664Z,-4.44
2023-02-08T14:07:50.124Z,-4.75
2023-02-08T14:13:10.341Z,-4.85
2023-02-08T14:18:34.405Z,-4.82
2023-02-08T14:23:40.792Z,-5.31
2023-02-08T14:28:49.346Z,-5.64
2023-02-08T14:33:57.216Z,-6.01
2023-02-08T14:39:35.946Z,-6.32
2023-02-08T14:44:42.642Z,-6.06
2023-02-08T14:49:49.440Z,-5.97
2023-02-08T14:55:37.369Z,-5.92
2023-02-08T15:00:45.933Z,-6.49
2023-02-08T15:06:30.875Z,-6.90
2023-02-08T15:11:36.698Z,-7.08
2023-02-08T15:16:44.839Z,-6.93
2023-02-08T15:21:50.618Z,-6.75
2023-02-08T15:26:58.532Z,-6.77
2023-02-08T15:32:04.109Z,-7.28
2023-02-08T15:37:18.740Z,-7.32
2023-02-08T15:42:27.307Z,-7.31
2023-02-08T15:47:36.540Z,-7.70
2023-02-08T15:52:42.301Z,-8.25
2023-02-08T15:57:57.647Z,-8.26
2023-02-08T16:03:24.558Z,-8.28
2023-02-08T16:08:36.361Z,-8.45
2023-02-08T16:13:50.441Z,-8.52
2023-02-08T16:19:04.409Z,-8.48
2023-02-08T16:24:16.290Z,-8.70
2023-02-08T16:29:24.697Z,-8.59
2023-02-08T16:34:33.035Z,-8.48
2023-02-08T16:39:54.719Z,-8.38
2023-02-08T16:45:15.818Z,-8.31
2023-02-08T16:50:30.834Z,-8.24
2023-02-08T16:55:38.784Z,-8.18
2023-02-08T17:00:45.903Z,-8.08
2023-02-08T17:05:51.812Z,-8.21
2023-02-08T17:10:59.431Z,-7.83
2023-02-08T17:16:05.364Z,-7.76
2023-02-08T17:21:11.095Z,-8.12
2023-02-08T17:26:19.616Z,-8.40
2023-02-08T17:31:25.689Z,-8.31
2023-02-08T17:36:33.430Z,-8.29
2023-02-08T17:41:40.348Z,-8.32
2023-02-08T17:46:45.789Z,-8.12
2023-02-08T17:51:51.160Z,-7.90
2023-02-08T17:56:59.154Z,-7.71
2023-02-08T18:02:04.810Z,-7.55
2023-02-08T18:07:10.308Z,-7.67
2023-02-08T18:12:16.233Z,-7.76
2023-02-08T18:17:21.410Z,-7.80
2023-02-08T18:22:28.196Z,-7.56
2023-02-08T18:27:33.666Z,-7.28
2023-02-08T18:32:40.095Z,-7.05
2023-02-08T18:37:47.027Z,-6.86
2023-02-08T18:42:52.460Z,-6.76
2023-02-08T18:47:59.392Z,-6.39
2023-02-08T18:53:05.522Z,-6.66
2023-02-08T18:58:11.000Z,-6.72
2023-02-08T19:03:16.555Z,-6.49
2023-02-08T19:08:23.245Z,-6.29
2023-02-08T19:13:28.648Z,-5.84
2023-02-08T19:18:34.161Z,-5.45
2023-02-08T19:23:40.180Z,-5.79
2023-02-08T19:28:46.700Z,-5.99
2023-02-08T19:34:20.419Z,-6.16
2023-02-08T19:39:28.693Z,-6.44
2023-02-08T19:44:34.097Z,-6.33
2023-02-08T19:49:39.605Z,-6.10
2023-02-08T19:54:44.885Z,-6.41
2023-02-08T19:59:50.238Z,-6.61
2023-02-08T20:04:55.758Z,-6.84
2023-02-08T20:10:01.653Z,-6.89
2023-02-08T20:15:08.815Z,-7.09
2023-02-08T20:20:14.420Z,-7.14
2023-02-08T20:25:19.807Z,-7.20
2023-02-08T20:30:28.396Z,-7.16
2023-02-08T20:35:37.071Z,-7.10
2023-02-08T20:40:42.989Z,-6.96
2023-02-08T20:45:48.732Z,-6.92
2023-02-08T20:50:54.321Z,-6.67
2023-02-08T20:56:00.079Z,-6.90
2023-02-08T21:01:39.936Z,-6.89
2023-02-08T21:06:46.749Z,-6.77
2023-02-08T21:11:53.256Z,-6.63
2023-02-08T21:16:59.414Z,-6.72
2023-02-08T21:22:05.215Z,-6.69
2023-02-08T21:27:10.990Z,-6.17
2023-02-08T21:32:16.720Z,-5.83
2023-02-08T21:37:21.987Z,-6.38
2023-02-08T21:42:27.640Z,-6.79
2023-02-08T21:47:33.238Z,-6.84
2023-02-08T21:52:58.698Z,-6.96
2023-02-08T21:58:04.323Z,-7.04
2023-02-08T22:03:09.906Z,-6.93
2023-02-08T22:08:15.350Z,-6.81
2023-02-08T22:13:20.563Z,-6.67
2023-02-08T22:18:27.190Z,-6.63
2023-02-08T22:23:32.968Z,-6.47
2023-02-08T22:28:38.512Z,-6.25
2023-02-08T22:33:44.204Z,-6.30
2023-02-08T22:38:49.742Z,-6.12
2023-02-08T22:43:55.278Z,-5.94
2023-02-08T22:49:00.791Z,-5.78
2023-02-08T22:54:06.397Z,-5.95
2023-02-08T22:59:12.026Z,-6.07
2023-02-08T23:04:17.494Z,-6.06
2023-02-08T23:09:22.819Z,-6.11
2023-02-08T23:14:28.337Z,-6.38
2023-02-08T23:19:33.761Z,-6.52
2023-02-08T23:24:39.406Z,-6.63
2023-02-08T23:29:44.899Z,-6.80
2023-02-08T23:34:50.530Z,-6.89
2023-02-08T23:39:56.082Z,-6.94
2023-02-08T23:45:02.279Z,-6.93
2023-02-08T23:50:09.501Z,-7.14
2023-02-08T23:55:14.940Z,-7.25
